createdAt,value
2023-03-29T06:47:35.679Z,34.08
2023-03-29T07:01:30.984Z,35.75
2023-03-29T07:04:08.211Z,34.55
2023-03-29T07:06:41.283Z,34.83
2023-03-29T07:09:13.907Z,35.42
2023-03-29T07:14:28.987Z,36.45
2023-03-29T07:23:36.060Z,28.88
2023-03-29T07:26:06.779Z,27.42
2023-03-29T07:28:37.704Z,30.23
2023-03-29T07:31:11.345Z,31.10
2023-03-29T07:34:19.264Z,33.13
2023-03-29T07:36:51.713Z,32.90
2023-03-29T07:39:18.938Z,34.60
2023-03-29T07:41:56.807Z,32.63
2023-03-29T07:49:49.985Z,21.95
2023-03-29T07:52:18.775Z,19.95
2023-03-29T07:54:51.167Z,19.25
2023-03-29T07:57:25.781Z,19.13
2023-03-29T07:59:57.006Z,19.40
2023-03-29T08:03:10.767Z,18.60
2023-03-29T08:08:22.473Z,18.35
2023-03-29T08:10:53.915Z,20.27
2023-03-29T08:13:23.116Z,17.92
2023-03-29T08:24:16.098Z,15.20
2023-03-29T08:26:43.712Z,13.35
2023-03-29T08:29:11.852Z,14.25
2023-03-29T08:34:57.365Z,14.90
2023-03-29T08:37:26.108Z,14.10
2023-03-29T08:39:53.521Z,11.85
2023-03-29T08:42:49.390Z,11.55
2023-03-29T08:45:29.377Z,11.55
2023-03-29T08:48:23.954Z,10.43
2023-03-29T08:50:55.388Z,12.15
2023-03-29T08:53:52.974Z,11.63
2023-03-29T08:56:34.004Z,10.20
2023-03-29T08:59:01.419Z,9.95
2023-03-29T09:01:35.568Z,9.85
2023-03-29T09:04:16.703Z,10.25
2023-03-29T09:06:43.972Z,16.95
2023-03-29T09:09:24.238Z,19.50
2023-03-29T09:12:11.622Z,9.88
2023-03-29T09:14:59.085Z,8.55
2023-03-29T09:17:49.686Z,8.45
2023-03-29T09:20:55.353Z,7.38
2023-03-29T09:30:28.579Z,4.82
2023-03-29T09:33:42.030Z,4.90
2023-03-29T10:05:17.684Z,4.93
2023-03-29T10:07:53.776Z,4.20
2023-03-29T10:10:38.693Z,4.65
2023-03-29T10:38:00.591Z,3.40
2023-03-29T10:40:31.283Z,3.47
2023-03-29T10:43:17.101Z,4.13
2023-03-29T10:45:44.388Z,3.85
2023-03-29T10:48:15.831Z,3.60
2023-03-29T10:50:43.465Z,4.43
2023-03-29T10:53:28.697Z,4.47
2023-03-29T10:56:19.390Z,4.78
2023-03-29T10:59:22.291Z,4.82
2023-03-29T11:02:13.849Z,4.40
2023-03-29T11:04:47.658Z,4.15
2023-03-29T11:07:48.377Z,4.50
2023-03-29T11:10:53.170Z,4.72
2023-03-29T11:13:45.111Z,5.57
2023-03-29T11:16:16.967Z,4.85
2023-03-29T11:19:21.276Z,5.00
2023-03-29T11:22:11.786Z,5.72
2023-03-29T11:25:20.458Z,5.68
2023-03-29T11:31:52.018Z,5.22
2023-03-29T11:40:47.968Z,5.45
2023-03-29T11:43:39.052Z,5.18
2023-03-29T11:46:39.003Z,6.50
2023-03-29T11:49:40.596Z,6.43
2023-03-29T11:52:21.502Z,6.75
2023-03-29T11:55:08.433Z,5.55
2023-03-29T11:58:19.364Z,5.85
2023-03-29T12:00:49.357Z,5.50
2023-03-29T12:03:34.604Z,5.60
2023-03-29T12:06:20.120Z,5.68
2023-03-29T12:09:03.323Z,5.75
2023-03-29T12:11:40.028Z,5.88
2023-03-29T12:14:21.587Z,4.80
2023-03-29T12:16:50.157Z,4.80
2023-03-29T12:19:35.372Z,4.47
2023-03-29T12:22:08.011Z,4.72
2023-03-29T12:27:21.005Z,5.47
2023-03-29T12:30:24.118Z,4.65
2023-03-29T12:33:03.334Z,5.22
2023-03-29T12:35:42.651Z,4.07
2023-03-29T12:38:28.702Z,3.75
2023-03-29T12:40:58.917Z,2.97
2023-03-29T12:43:44.623Z,3.30
2023-03-29T12:46:24.079Z,3.83
2023-03-29T12:48:57.479Z,3.38
2023-03-29T12:51:40.059Z,4.05
2023-03-29T12:54:10.823Z,3.67
2023-03-29T12:57:21.119Z,3.42
2023-03-29T12:59:49.729Z,2.90
2023-03-29T13:02:19.836Z,3.38
2023-03-29T13:04:59.975Z,3.03
2023-03-29T13:07:32.074Z,3.65
2023-03-29T13:10:03.524Z,4.38
2023-03-29T13:12:42.118Z,3.75
2023-03-29T13:15:14.971Z,4.40
2023-03-29T13:18:06.710Z,3.85
2023-03-29T13:20:56.466Z,4.68
2023-03-29T13:23:49.694Z,4.68
2023-03-29T13:26:54.324Z,4.22
2023-03-29T13:30:06.623Z,3.38
2023-03-29T13:33:01.352Z,3.80
2023-03-29T13:35:58.585Z,3.85
2023-03-29T13:38:35.801Z,2.88
2023-03-29T13:41:07.564Z,3.40
2023-03-29T14:01:58.912Z,4.20
2023-03-29T14:10:44.258Z,3.38
2023-03-29T14:13:19.925Z,3.75
2023-03-29T14:18:41.686Z,3.30
2023-03-29T14:21:19.734Z,3.22
2023-03-29T14:24:06.673Z,3.10
2023-03-29T14:36:28.591Z,4.70
2023-03-29T14:39:35.524Z,3.72
2023-03-29T14:42:13.656Z,4.13
2023-03-29T14:44:41.909Z,4.57
2023-03-29T14:47:09.411Z,4.22
2023-03-29T14:49:40.240Z,4.22
2023-03-29T14:52:10.510Z,3.35
2023-03-29T14:54:43.013Z,3.97
2023-03-29T14:57:24.652Z,5.00
2023-03-29T15:03:02.989Z,2.75
2023-03-29T15:05:46.498Z,2.85
2023-03-29T15:08:23.900Z,3.25
2023-03-29T15:10:56.029Z,4.13
2023-03-29T15:16:17.954Z,5.15
2023-03-29T15:18:49.578Z,4.40
2023-03-29T15:35:25.613Z,4.32
2023-03-29T15:38:04.595Z,4.17
2023-03-29T15:40:39.937Z,4.45
2023-03-29T15:43:08.597Z,5.75
2023-03-29T15:45:36.860Z,6.57
2023-03-29T15:59:11.741Z,7.82
2023-03-29T16:07:08.873Z,7.22
2023-03-29T16:09:43.418Z,9.23
2023-03-29T16:20:27.642Z,6.15
2023-03-29T16:25:47.598Z,4.82
2023-03-29T16:31:03.912Z,4.65
2023-03-29T16:33:37.690Z,5.73
2023-03-29T16:36:15.818Z,8.15
2023-03-29T16:38:50.773Z,12.48
2023-03-29T16:44:14.010Z,29.33
2023-03-29T16:46:49.012Z,21.90
2023-03-29T17:00:20.301Z,27.70
2023-03-29T17:02:56.271Z,23.10
2023-03-29T17:22:13.143Z,22.67
2023-03-29T18:09:50.966Z,60.85
2023-03-29T18:12:26.272Z,64.60
2023-03-29T18:14:53.908Z,70.47
2023-03-29T18:17:22.495Z,58.63
2023-03-29T18:25:42.905Z,68.30
2023-03-29T18:28:15.608Z,87.88
2023-03-29T18:31:04.835Z,89.35
2023-03-29T18:36:54.096Z,102.57
2023-03-29T19:06:55.817Z,86.45
2023-03-29T19:09:24.474Z,77.97
2023-03-29T19:11:56.470Z,78.18
2023-03-29T19:14:25.444Z,81.32
2023-03-29T19:16:58.061Z,93.82
2023-03-29T19:19:26.700Z,96.97
2023-03-29T19:21:54.173Z,93.35
2023-03-29T19:24:24.896Z,94.78
2023-03-29T19:29:22.160Z,90.68
2023-03-29T19:31:51.983Z,90.65
2023-03-29T19:34:24.335Z,89.27
2023-03-29T19:36:55.726Z,87.07
2023-03-29T19:39:23.168Z,91.88
2023-03-29T19:41:50.749Z,100.10
2023-03-29T19:44:21.131Z,97.68
2023-03-29T19:46:51.545Z,95.00
2023-03-29T19:49:34.108Z,111.32
2023-03-29T20:08:25.911Z,140.45
2023-03-29T20:11:00.880Z,123.97
2023-03-29T20:21:44.640Z,145.60
2023-03-29T20:27:06.644Z,147.90
2023-03-29T20:35:16.533Z,100.85
2023-03-29T20:48:54.962Z,132.95
2023-03-29T20:56:45.454Z,127.38
2023-03-29T21:01:57.088Z,122.60
2023-03-29T21:04:26.484Z,120.18
2023-03-29T21:12:18.042Z,93.00
2023-03-29T21:14:48.879Z,102.30
2023-03-29T21:17:24.015Z,103.07
2023-03-29T21:20:00.438Z,92.82
2023-03-29T21:25:14.623Z,92.07
2023-03-29T21:27:42.714Z,139.32
2023-03-29T21:32:55.422Z,98.35
2023-03-29T21:35:28.017Z,99.22
2023-03-29T21:37:56.604Z,95.35
2023-03-29T21:40:25.099Z,93.78
2023-03-29T21:50:59.216Z,74.32
2023-03-29T21:53:34.818Z,63.63
2023-03-29T22:01:30.350Z,63.45
2023-03-29T22:06:41.456Z,66.53
2023-03-29T22:09:12.760Z,70.95
2023-03-29T22:11:43.782Z,68.68
2023-03-29T22:14:13.073Z,60.85
2023-03-29T22:16:41.199Z,59.03
2023-03-29T22:19:10.794Z,55.30
2023-03-29T22:21:39.425Z,54.55
2023-03-29T22:24:12.574Z,53.97
2023-03-29T22:26:43.033Z,54.42
2023-03-29T22:29:12.755Z,50.50
2023-03-29T22:31:40.810Z,56.08
2023-03-29T22:34:08.812Z,52.80
2023-03-29T22:36:36.934Z,63.35
2023-03-29T22:39:04.806Z,63.00
2023-03-29T22:41:32.510Z,70.10
2023-03-29T22:46:48.119Z,99.88
2023-03-29T22:49:18.210Z,87.93
2023-03-29T22:51:45.970Z,67.30
2023-03-29T22:59:37.214Z,61.70
2023-03-29T23:07:37.910Z,59.78
2023-03-29T23:12:55.058Z,56.92
2023-03-29T23:15:32.870Z,59.67
2023-03-29T23:18:03.068Z,58.83
2023-03-29T23:20:34.534Z,61.88
2023-03-29T23:23:07.732Z,62.90
2023-03-29T23:25:37.122Z,57.83
2023-03-29T23:28:05.983Z,48.28
2023-03-29T23:30:39.779Z,48.58
2023-03-29T23:35:52.180Z,51.13
2023-03-29T23:38:21.184Z,46.65
2023-03-29T23:40:59.576Z,49.08
2023-03-29T23:43:39.034Z,47.70
2023-03-29T23:46:10.826Z,47.55
2023-03-29T23:48:39.452Z,49.83
2023-03-29T23:51:10.445Z,49.10
2023-03-29T23:53:38.011Z,49.22
2023-03-29T23:56:06.896Z,49.25
2023-03-29T23:58:36.336Z,46.92
